Time;durP1;ratioP1;P1;durP2;ratioP2;P2;SDS_P1;SDS_P2;PMS_P1;PMS_P2;Temp;Humidity;BMP_temperature;BMP_pressure;BME280_temperature;BME280_humidity;BME280_pressure;Samples;Min_cycle;Max_cycle;Signal;HPM_P1;HPM_P2
2021/06/04 16:24:10;;;;;;;;;;;26.60;70.70;;;;;;5113428;27;20457;-64
2021/06/04 16:26:37;;;;;;;2.35;0.82;;;26.10;71.50;;;;;;5098441;28;20415;-63
2021/06/04 16:29:04;;;;;;;5.93;0.68;;;25.50;72.50;;;;;;5077484;28;20055;-64
2021/06/04 16:31:39;;;;;;;2.03;0.70;;;25.30;73.90;;;;;;5075540;28;20025;-64
2021/06/04 16:34:06;;;;;;;1.50;0.50;;;25.40;75.50;;;;;;5073723;28;20081;-64
2021/06/04 16:36:34;;;;;;;1.85;0.80;;;25.50;73.50;;;;;;5072749;28;20029;-64
2021/06/04 16:39:00;;;;;;;2.55;0.70;;;25.30;72.70;;;;;;5076283;28;20013;-65
2021/06/04 16:41:26;;;;;;;1.65;0.70;;;25.10;71.70;;;;;;5073954;28;20051;-65
2021/06/04 16:43:52;;;;;;;2.83;0.70;;;25.10;70.90;;;;;;5073001;28;20103;-64
2021/06/04 16:46:17;;;;;;;1.38;0.50;;;24.60;71.80;;;;;;5073372;28;20033;-64
2021/06/04 16:48:43;;;;;;;3.00;0.85;;;23.60;73.80;;;;;;5073705;28;20017;-64
2021/06/04 16:51:09;;;;;;;1.48;0.70;;;22.90;77.00;;;;;;5073069;28;20096;-64
2021/06/04 16:53:38;;;;;;;3.97;0.63;;;22.90;76.00;;;;;;5073293;28;20471;-64
2021/06/04 16:56:05;;;;;;;3.22;0.50;;;23.10;75.90;;;;;;5075318;28;20020;-64
2021/06/04 16:58:31;;;;;;;1.80;0.60;;;23.40;76.70;;;;;;5059675;28;20021;-64
2021/06/04 17:00:57;;;;;;;0.90;0.75;;;23.50;74.90;;;;;;5073278;28;20477;-64
2021/06/04 17:03:23;;;;;;;1.00;0.55;;;23.00;75.40;;;;;;5076900;28;20085;-64
2021/06/04 17:05:49;;;;;;;2.03;0.68;;;22.60;77.30;;;;;;5078361;28;20397;-64
2021/06/04 17:08:16;;;;;;;1.90;0.60;;;22.10;78.80;;;;;;5073419;28;20507;-63
2021/06/04 17:10:42;;;;;;;3.25;0.82;;;22.00;79.70;;;;;;5073134;28;20078;-64
2021/06/04 17:13:08;;;;;;;1.58;0.65;;;22.00;79.70;;;;;;5059502;28;20099;-64
2021/06/04 17:15:38;;;;;;;2.28;0.63;;;22.30;80.20;;;;;;5071013;28;20505;-64
2021/06/04 17:18:05;;;;;;;4.45;0.98;;;22.70;80.80;;;;;;5067500;28;20025;-63
2021/06/04 17:20:31;;;;;;;3.75;0.73;;;22.80;77.90;;;;;;5072679;28;20050;-64
2021/06/04 17:22:58;;;;;;;3.65;0.50;;;22.80;77.40;;;;;;5072377;28;20037;-65
2021/06/04 17:25:26;;;;;;;1.10;0.60;;;22.70;76.70;;;;;;5072678;28;20473;-64
2021/06/04 17:27:53;;;;;;;2.72;1.27;;;22.50;77.80;;;;;;5071912;28;20094;-64
2021/06/04 17:30:26;;;;;;;1.15;0.70;;;22.30;77.60;;;;;;5072210;28;20052;-63
2021/06/04 17:32:53;;;;;;;2.67;0.63;;;22.20;79.30;;;;;;5072516;28;20064;-64
2021/06/04 17:35:21;;;;;;;3.15;0.98;;;22.20;80.00;;;;;;5052443;28;20470;-64
2021/06/04 17:37:46;;;;;;;2.08;0.70;;;22.20;79.40;;;;;;5055127;28;20100;-64
2021/06/04 17:40:15;;;;;;;1.80;0.93;;;22.10;79.30;;;;;;5059231;28;20049;-64
2021/06/04 17:42:41;;;;;;;1.08;0.70;;;21.90;79.40;;;;;;5056625;28;20017;-65
2021/06/04 17:45:10;;;;;;;5.38;0.80;;;21.70;79.90;;;;;;5058284;28;20025;-62
2021/06/04 17:47:37;;;;;;;2.75;0.95;;;21.80;79.70;;;;;;5067798;28;20108;-63
2021/06/04 17:50:05;;;;;;;1.05;0.70;;;21.70;81.30;;;;;;5058624;28;20033;-62
2021/06/04 17:52:33;;;;;;;1.27;0.65;;;21.80;81.00;;;;;;5058902;28;20021;-63
2021/06/04 17:54:59;;;;;;;2.58;0.70;;;21.80;80.60;;;;;;5058899;28;20406;-62
2021/06/04 17:57:25;;;;;;;2.53;0.70;;;21.80;80.70;;;;;;5058447;28;20033;-65
2021/06/04 17:59:53;;;;;;;1.77;0.70;;;21.50;80.90;;;;;;5058558;28;20037;-66
2021/06/04 18:02:21;;;;;;;2.20;0.60;;;21.20;81.40;;;;;;5058879;28;20056;-68
2021/06/04 18:04:47;;;;;;;3.13;1.02;;;20.80;81.90;;;;;;5058425;28;20025;-67
2021/06/04 18:07:13;;;;;;;1.55;0.70;;;20.50;83.90;;;;;;5058604;28;20013;-69
2021/06/04 18:09:39;;;;;;;2.67;0.57;;;19.80;83.90;;;;;;5058446;28;20032;-68
2021/06/04 18:12:07;;;;;;;1.90;0.80;;;20.00;85.40;;;;;;5058054;28;20021;-68
2021/06/04 18:14:33;;;;;;;1.70;0.50;;;19.90;86.70;;;;;;5058277;28;20020;-68
2021/06/04 18:16:59;;;;;;;0.90;0.82;;;19.90;89.20;;;;;;5049483;28;20186;-73
2021/06/04 18:19:26;;;;;;;1.02;0.60;;;19.80;90.20;;;;;;5058042;28;20112;-68
2021/06/04 18:21:53;;;;;;;3.30;0.68;;;19.60;90.60;;;;;;5057885;28;20174;-67
2021/06/04 18:24:19;;;;;;;3.97;1.15;;;19.60;91.10;;;;;;5057532;28;20135;-68
2021/06/04 18:26:45;;;;;;;1.52;0.65;;;19.40;91.50;;;;;;5057914;28;20028;-68
2021/06/04 18:29:11;;;;;;;2.15;0.80;;;19.50;92.30;;;;;;5068188;28;20025;-67
2021/06/04 18:31:37;;;;;;;5.57;0.70;;;19.50;92.90;;;;;;5059845;28;20505;-67
2021/06/04 18:34:04;;;;;;;3.58;0.70;;;19.40;93.50;;;;;;5057674;28;20033;-68
2021/06/04 18:36:31;;;;;;;0.82;0.60;;;19.40;93.90;;;;;;5057860;28;20473;-68
2021/06/04 18:38:57;;;;;;;2.40;0.70;;;19.30;94.30;;;;;;5058110;28;20033;-68
2021/06/04 18:41:23;;;;;;;3.83;0.60;;;19.20;94.50;;;;;;5057738;28;20025;-68
2021/06/04 18:43:49;;;;;;;1.15;0.47;;;19.20;94.90;;;;;;5058013;28;20481;-68
2021/06/04 18:46:20;;;;;;;0.85;0.57;;;19.10;95.50;;;;;;5056353;28;20492;-68
2021/06/04 18:48:46;;;;;;;0.47;0.47;;;19.00;95.30;;;;;;5057208;28;20025;-68
2021/06/04 18:51:18;;;;;;;1.98;0.68;;;19.00;95.60;;;;;;5057564;28;20021;-68
2021/06/04 18:53:45;;;;;;;1.20;1.02;;;19.00;95.90;;;;;;5057810;28;20098;-68
2021/06/04 18:56:12;;;;;;;0.90;0.77;;;19.00;95.90;;;;;;5057098;28;20017;-67
2021/06/04 18:58:38;;;;;;;3.20;1.23;;;19.10;95.90;;;;;;5057714;28;20045;-67
2021/06/04 19:01:09;;;;;;;4.18;0.90;;;19.00;96.10;;;;;;5057313;28;20028;-67
2021/06/04 19:03:41;;;;;;;3.03;0.88;;;18.90;94.70;;;;;;5057064;28;20029;-67
2021/06/04 19:06:09;;;;;;;4.55;0.85;;;18.80;95.90;;;;;;5057226;28;20025;-68
2021/06/04 19:08:35;;;;;;;6.13;0.95;;;18.70;96.20;;;;;;5057326;28;20021;-67
2021/06/04 19:11:02;;;;;;;1.20;0.88;;;18.60;96.40;;;;;;5057061;28;20509;-68
2021/06/04 19:13:28;;;;;;;1.88;0.98;;;18.50;96.80;;;;;;5057410;28;20125;-67
2021/06/04 19:15:54;;;;;;;2.35;1.00;;;18.60;97.10;;;;;;5048164;28;20432;-68
2021/06/04 19:18:20;;;;;;;1.50;0.82;;;18.70;97.90;;;;;;5053378;28;20512;-68
2021/06/04 19:20:47;;;;;;;0.88;0.60;;;18.60;98.90;;;;;;5057111;28;20020;-68
2021/06/04 19:23:14;;;;;;;3.33;0.70;;;18.60;99.20;;;;;;5056443;28;20123;-67
2021/06/04 19:25:42;;;;;;;1.20;0.80;;;18.60;99.80;;;;;;5056852;28;20052;-68
2021/06/04 19:28:10;;;;;;;2.60;0.98;;;18.50;99.90;;;;;;5057033;28;20393;-67
2021/06/04 19:30:43;;;;;;;5.32;1.02;;;18.40;99.90;;;;;;5056929;28;20024;-67
2021/06/04 19:33:12;;;;;;;1.50;1.00;;;18.40;99.90;;;;;;5056479;28;20029;-68
2021/06/04 19:35:39;;;;;;;1.85;1.13;;;18.30;99.90;;;;;;5056420;28;20040;-67
2021/06/04 19:38:13;;;;;;;4.30;1.17;;;18.20;99.90;;;;;;5056919;28;20025;-67
2021/06/04 19:40:41;;;;;;;1.45;0.77;;;18.10;99.90;;;;;;5056527;28;20021;-67
2021/06/04 19:43:08;;;;;;;1.13;0.90;;;18.20;99.90;;;;;;5057132;28;20424;-67
2021/06/04 19:45:34;;;;;;;1.80;0.98;;;18.10;99.90;;;;;;5056404;28;20013;-67
2021/06/04 19:48:00;;;;;;;1.02;0.90;;;18.00;99.30;;;;;;5056370;28;20025;-68
2021/06/04 19:50:26;;;;;;;2.42;1.02;;;17.90;99.30;;;;;;5056830;28;20096;-68
2021/06/04 19:52:52;;;;;;;6.15;1.30;;;17.80;98.80;;;;;;5056863;28;20063;-68
2021/06/04 19:55:20;;;;;;;3.35;1.35;;;17.80;98.40;;;;;;5055604;28;20063;-67
2021/06/04 19:57:46;;;;;;;3.33;1.23;;;17.70;98.50;;;;;;5056504;28;20036;-67
2021/06/04 20:00:20;;;;;;;2.97;0.80;;;17.70;98.50;;;;;;5056332;28;20024;-68
2021/06/04 20:02:46;;;;;;;3.10;1.17;;;17.70;99.00;;;;;;5056173;28;20504;-67
2021/06/04 20:05:13;;;;;;;1.33;0.90;;;17.60;99.60;;;;;;5056709;28;20021;-67
2021/06/04 20:07:39;;;;;;;5.43;1.08;;;17.60;99.80;;;;;;5056676;28;20049;-67
2021/06/04 20:10:07;;;;;;;2.50;1.33;;;17.50;99.50;;;;;;5055869;28;20501;-68
2021/06/04 20:12:33;;;;;;;2.40;1.00;;;17.50;99.60;;;;;;5055823;28;20102;-68
2021/06/04 20:14:59;;;;;;;2.10;1.20;;;17.30;99.60;;;;;;5054348;28;20029;-67
2021/06/04 20:17:25;;;;;;;6.25;1.65;;;17.20;99.70;;;;;;5045454;28;20400;-67
2021/06/04 20:19:52;;;;;;;1.10;1.00;;;17.00;99.60;;;;;;5058002;28;20023;-68
2021/06/04 20:22:21;;;;;;;3.10;1.67;;;16.80;99.90;;;;;;5056057;28;20056;-67
2021/06/04 20:24:48;;;;;;;2.30;1.58;;;16.60;99.90;;;;;;5055786;28;20385;-67
2021/06/04 20:27:14;;;;;;;3.10;1.27;;;16.50;99.90;;;;;;5056101;28;20078;-67
2021/06/04 20:29:40;;;;;;;3.97;1.65;;;16.40;99.90;;;;;;5055859;28;20029;-67
2021/06/04 20:32:09;;;;;;;3.10;1.20;;;16.20;99.90;;;;;;5055792;28;20409;-67
2021/06/04 20:34:35;;;;;;;1.48;1.10;;;16.00;99.90;;;;;;5055991;28;20017;-67
2021/06/04 20:37:01;;;;;;;5.63;1.55;;;15.90;99.90;;;;;;5056417;28;20033;-67
2021/06/04 20:39:28;;;;;;;1.60;1.20;;;15.80;99.90;;;;;;5055852;28;20028;-67
2021/06/04 20:41:54;;;;;;;1.70;1.00;;;15.80;99.90;;;;;;5056424;28;20025;-67
2021/06/04 20:44:20;;;;;;;3.47;1.45;;;15.60;99.90;;;;;;5055835;28;20056;-67
2021/06/04 20:46:46;;;;;;;3.45;1.38;;;15.60;99.90;;;;;;5055375;28;20029;-67
2021/06/04 20:49:13;;;;;;;1.30;1.20;;;15.50;99.90;;;;;;5056075;28;20104;-67
2021/06/04 20:51:42;;;;;;;3.05;1.10;;;15.40;99.90;;;;;;5055966;28;20553;-67
2021/06/04 20:54:14;;;;;;;2.53;1.17;;;15.20;99.90;;;;;;5055564;28;20053;-67
2021/06/04 20:56:48;;;;;;;1.60;1.02;;;15.20;99.90;;;;;;5055552;28;20063;-67
2021/06/04 20:59:14;;;;;;;9.82;1.58;;;15.00;99.90;;;;;;5055394;28;20024;-67
2021/06/04 21:01:40;;;;;;;1.20;1.10;;;15.00;99.90;;;;;;5055097;28;20031;-67
2021/06/04 21:04:07;;;;;;;7.00;1.48;;;14.90;99.90;;;;;;5056118;28;20485;-67
2021/06/04 21:06:34;;;;;;;1.15;1.00;;;14.60;99.90;;;;;;5056010;28;20107;-67
2021/06/04 21:09:00;;;;;;;2.47;1.23;;;14.50;99.90;;;;;;5056167;28;20028;-67
2021/06/04 21:11:26;;;;;;;2.30;1.52;;;14.40;99.90;;;;;;5059788;28;20100;-67
2021/06/04 21:13:54;;;;;;;5.65;1.55;;;14.40;99.90;;;;;;5059866;28;20037;-67
2021/06/04 21:16:21;;;;;;;2.08;1.10;;;14.60;99.90;;;;;;5063278;28;20036;-67
2021/06/04 21:18:47;;;;;;;1.92;1.17;;;14.50;99.90;;;;;;5059765;28;20036;-67
2021/06/04 21:21:14;;;;;;;1.88;0.88;;;14.30;99.90;;;;;;5059472;28;20029;-67
2021/06/04 21:23:41;;;;;;;0.80;0.80;;;14.00;99.90;;;;;;5057454;28;20044;-67
2021/06/04 21:26:11;;;;;;;1.85;0.80;;;14.10;99.90;;;;;;5059205;28;20021;-67
2021/06/04 21:28:37;;;;;;;3.85;1.30;;;14.00;99.90;;;;;;5059468;28;20025;-67
2021/06/04 21:31:04;;;;;;;1.38;1.15;;;14.00;99.90;;;;;;5058879;28;20032;-67
2021/06/04 21:33:33;;;;;;;1.38;0.90;;;13.70;99.90;;;;;;5059045;28;20032;-67
2021/06/04 21:35:59;;;;;;;2.22;1.02;;;13.70;99.90;;;;;;5052987;28;20489;-67
2021/06/04 21:38:26;;;;;;;2.78;2.38;;;13.60;99.90;;;;;;5058606;28;20143;-67
2021/06/04 21:40:53;;;;;;;2.75;1.35;;;13.50;99.90;;;;;;5059466;28;20036;-67
2021/06/04 21:43:29;;;;;;;1.92;1.35;;;13.50;99.90;;;;;;5059018;28;20051;-67
2021/06/04 21:45:56;;;;;;;9.25;1.52;;;13.40;99.90;;;;;;5045831;28;20017;-67
2021/06/04 21:48:22;;;;;;;2.03;1.17;;;13.20;99.90;;;;;;5059130;28;20037;-67
2021/06/04 21:50:49;;;;;;;2.67;1.40;;;13.30;99.90;;;;;;5059119;28;20025;-67
2021/06/04 21:53:15;;;;;;;1.88;1.10;;;13.10;99.90;;;;;;5058397;28;20021;-66
2021/06/04 21:55:42;;;;;;;3.70;1.20;;;13.20;99.90;;;;;;5058740;28;20036;-67
2021/06/04 21:58:08;;;;;;;2.08;1.30;;;13.20;99.90;;;;;;5058582;28;20509;-67
2021/06/04 22:00:41;;;;;;;1.50;1.38;;;13.20;99.90;;;;;;5057845;28;20052;-67
2021/06/04 22:03:12;;;;;;;3.17;1.20;;;12.60;99.90;;;;;;5058801;28;20064;-67
2021/06/04 22:05:38;;;;;;;8.38;1.15;;;12.70;99.90;;;;;;5058734;28;20047;-67
2021/06/04 22:08:05;;;;;;;2.42;1.23;;;12.70;99.90;;;;;;5057954;28;20446;-67
2021/06/04 22:10:33;;;;;;;2.78;1.00;;;12.40;99.90;;;;;;5058556;28;20013;-67
2021/06/04 22:13:00;;;;;;;2.47;1.10;;;12.60;99.90;;;;;;5058747;28;20497;-67
2021/06/04 22:15:29;;;;;;;1.80;0.98;;;12.60;99.90;;;;;;5052758;28;20028;-67
2021/06/04 22:17:55;;;;;;;2.30;1.30;;;12.40;99.90;;;;;;5053871;28;20036;-66
2021/06/04 22:20:22;;;;;;;2.40;0.98;;;12.30;99.90;;;;;;5058584;28;20582;-67
2021/06/04 22:22:50;;;;;;;6.55;1.20;;;12.20;99.90;;;;;;5057641;28;20053;-66
2021/06/04 22:25:22;;;;;;;3.03;1.20;;;12.40;99.90;;;;;;5056383;28;20493;-66
2021/06/04 22:27:48;;;;;;;1.13;1.13;;;12.10;99.90;;;;;;5057010;28;20044;-66
2021/06/04 22:30:15;;;;;;;4.38;1.35;;;12.00;99.90;;;;;;5058073;28;20095;-66
2021/06/04 22:32:41;;;;;;;2.83;1.30;;;12.20;99.90;;;;;;5058109;28;20029;-66
2021/06/04 22:35:10;;;;;;;2.55;1.30;;;12.40;99.90;;;;;;5058312;28;20028;-66
2021/06/04 22:37:37;;;;;;;1.05;0.70;;;12.10;99.90;;;;;;5058207;28;20032;-66
2021/06/04 22:40:09;;;;;;;0.95;0.93;;;11.80;99.90;;;;;;5058193;28;20075;-66
2021/06/04 22:42:35;;;;;;;1.17;1.05;;;11.50;99.90;;;;;;5057900;28;20482;-66
2021/06/04 22:45:02;;;;;;;1.75;0.90;;;11.50;99.90;;;;;;5058012;28;20112;-66
2021/06/04 22:47:27;;;;;;;2.05;1.25;;;12.20;99.90;;;;;;5058080;28;20032;-67
2021/06/04 22:49:53;;;;;;;4.65;1.27;;;12.00;99.90;;;;;;5058240;28;20029;-66
2021/06/04 22:52:19;;;;;;;1.45;1.33;;;11.40;99.90;;;;;;5057994;28;20031;-66
2021/06/04 22:54:46;;;;;;;5.35;2.08;;;12.00;99.90;;;;;;5057791;28;20033;-66
2021/06/04 22:57:16;;;;;;;1.52;1.00;;;11.30;99.90;;;;;;5057775;28;20071;-66
2021/06/04 22:59:42;;;;;;;1.20;1.10;;;11.20;99.90;;;;;;5057546;28;20021;-66
2021/06/04 23:02:08;;;;;;;2.30;1.10;;;11.40;99.90;;;;;;5057870;28;20017;-66
2021/06/04 23:04:35;;;;;;;0.90;0.90;;;10.80;99.90;;;;;;5057652;28;20397;-66
2021/06/04 23:07:01;;;;;;;3.47;1.40;;;10.60;99.90;;;;;;5057851;28;20021;-66
2021/06/04 23:09:27;;;;;;;2.92;1.17;;;11.10;99.90;;;;;;5057535;28;20024;-66
2021/06/04 23:11:53;;;;;;;2.67;1.20;;;11.10;99.90;;;;;;5057808;28;20032;-66
2021/06/04 23:14:19;;;;;;;0.80;0.80;;;10.90;99.90;;;;;;5057583;28;20029;-66
2021/06/04 23:16:45;;;;;;;1.33;1.10;;;10.80;99.90;;;;;;5057240;28;20013;-66
2021/06/04 23:19:10;;;;;;;1.65;1.30;;;11.10;99.90;;;;;;5057632;28;20029;-66
2021/06/04 23:21:36;;;;;;;1.00;1.00;;;10.70;99.90;;;;;;5057583;28;20025;-66
2021/06/04 23:24:04;;;;;;;1.10;1.10;;;11.10;99.90;;;;;;5056983;28;20148;-66
2021/06/04 23:26:33;;;;;;;2.95;1.17;;;11.50;99.90;;;;;;5057448;28;20028;-66
2021/06/04 23:28:59;;;;;;;1.30;1.20;;;11.00;99.90;;;;;;5057209;28;20389;-66
2021/06/04 23:31:26;;;;;;;2.25;1.00;;;10.30;99.90;;;;;;5057068;28;20021;-66
2021/06/04 23:33:55;;;;;;;1.17;1.17;;;10.50;99.90;;;;;;5057258;28;20032;-66
2021/06/04 23:36:25;;;;;;;1.65;1.20;;;10.50;99.90;;;;;;5056948;28;20021;-66
2021/06/04 23:38:51;;;;;;;1.50;1.38;;;10.90;99.90;;;;;;5057149;28;20053;-66
2021/06/04 23:41:19;;;;;;;4.18;1.40;;;10.60;99.90;;;;;;5057283;28;20024;-66
2021/06/04 23:43:45;;;;;;;1.77;1.00;;;10.60;99.90;;;;;;5056990;28;20035;-66
2021/06/04 23:46:13;;;;;;;1.60;1.08;;;10.80;99.90;;;;;;5056694;28;20048;-66
2021/06/04 23:48:40;;;;;;;2.22;1.20;;;10.10;99.90;;;;;;5057201;28;20021;-66
2021/06/04 23:51:06;;;;;;;2.70;1.30;;;10.40;99.90;;;;;;5056919;28;20070;-66
2021/06/04 23:53:33;;;;;;;2.55;1.20;;;10.10;99.90;;;;;;5056634;28;20084;-66
2021/06/04 23:55:59;;;;;;;4.43;1.25;;;11.60;99.90;;;;;;5057025;28;20077;-66
2021/06/04 23:58:26;;;;;;;2.35;1.20;;;10.50;99.90;;;;;;5056863;28;20048;-66
